Alma, Colorado
Current Conditions -  °F | °C
As of 12:15 PM on Saturday 20 Dec 2014 (Local Time) from KCCU Reporting Station
Light Snow Light Snow  
Wind Chill: 12°   Ceiling: 100
Heat Index: 23°   Visibility: 0.25mi
Dew Point: 18°   Wind: 10mph
Humidity: 80%   Direction: 280°W
Pressure: 30.06"   Gusts: NA
Location:  39.28°N, 106.06°W
Report Text: KCCU 201915Z AUTO 28009KT 1/4SM -SN OVC001 M05/M08 A3006 RMK AO2
Loading
Personal Weather Stations






























Interactive Weather Map New forecast layout! Learn more

10-Day Weather Forecast

Advertisements
Track Severe Weather on mobile